Station Historical Data
Daily Summary for January 8, 2017 Units:  Metric    English   Both
Next Day »
Daily Weekly Monthly Yearly Custom
  High: Low: Average:
Temperature: 11.9 °C 9.7 °C 10.9 °C
Dew Point: 11.7 °C 9.2 °C 10.5 °C
Humidity: 99% 96% 97%
Wind Speed: 53.1km/h 0km/h 23.3km/h
Wind Gust: 70.8km/h - -
Wind- - South
Pressure: 1019.2 hPa 1010.4 hPa -
Precipitation: 0 mm    
Historical Graphs
 
 
Tabular Data for January 8, 2017
Time Temperature Dew Point Pressure Wind Wind Speed Wind Gust Humidity Rainfall Rate (Hourly) solar Conditions
00:03 10.5 °C 10.1 °C 1019.2 hPa South 11.3 km/h 29 km/h 97% 4.06 mm 0.00 W/m2
00:08 10.5 °C 10.1 °C 1019.2 hPa SSE 17.7 km/h 29 km/h 97% 3.81 mm 0.00 W/m2
00:13 10.5 °C 10.1 °C 1019.2 hPa South 11.3 km/h 25.7 km/h 97% 4.32 mm 0.00 W/m2
00:18 10.6 °C 10.1 °C 1019.2 hPa SSE 16.1 km/h 27.4 km/h 97% 3.56 mm 0.00 W/m2
00:23 10.6 °C 10.1 °C 1019.2 hPa South 19.3 km/h 32.2 km/h 97% 4.06 mm 0.00 W/m2
00:28 10.6 °C 10.1 °C 1019.2 hPa SSE 16.1 km/h 27.4 km/h 97% 6.6 mm 0.00 W/m2
00:34 10.6 °C 10.1 °C 1019.2 hPa SSE 14.5 km/h 29 km/h 97% 6.1 mm 0.00 W/m2
00:39 10.6 °C 10.1 °C 1019.2 hPa SSE 16.1 km/h 25.7 km/h 97% 4.57 mm 0.00 W/m2
00:44 10.5 °C 10.1 °C 1018.8 hPa SSE 14.5 km/h 30.6 km/h 97% 3.05 mm 0.00 W/m2
00:49 10.5 °C 10.1 °C 1018.8 hPa SSE 20.9 km/h 35.4 km/h 97% 2.29 mm 0.00 W/m2
00:54 10.5 °C 10.1 °C 1018.8 hPa SSE 25.7 km/h 32.2 km/h 97% 3.56 mm 0.00 W/m2
00:59 10.5 °C 10.1 °C 1018.8 hPa South 17.7 km/h 25.7 km/h 97% 3.3 mm 0.00 W/m2
01:04 10.5 °C 10.1 °C 1018.8 hPa SSE 20.9 km/h 33.8 km/h 97% 3.05 mm 0.00 W/m2
01:09 10.4 °C 10 °C 1018.8 hPa SSE 17.7 km/h 22.5 km/h 97% 1.52 mm 0.00 W/m2
01:14 10.4 °C 10 °C 1018.5 hPa SSE 19.3 km/h 27.4 km/h 97% 1.52 mm 0.00 W/m2
01:19 10.4 °C 10 °C 1018.5 hPa SSE 14.5 km/h 33.8 km/h 97% 3.3 mm 0.00 W/m2
01:24 10.4 °C 10 °C 1018.5 hPa SSE 9.7 km/h 24.1 km/h 97% 1.52 mm 0.00 W/m2
01:29 10.4 °C 9.9 °C 1018.5 hPa SSE 22.5 km/h 25.7 km/h 97% 1.52 mm 0.00 W/m2
01:34 10.4 °C 9.9 °C 1018.5 hPa South 11.3 km/h 29 km/h 97% 1.78 mm 0.00 W/m2
01:39 10.4 °C 9.9 °C 1018.5 hPa SSE 8 km/h 24.1 km/h 97% 1.78 mm 0.00 W/m2
01:44 10.3 °C 9.9 °C 1018.5 hPa SSE 11.3 km/h 33.8 km/h 97% 1.78 mm 0.00 W/m2
01:49 10.3 °C 9.9 °C 1018.5 hPa South 8 km/h 27.4 km/h 97% 3.3 mm 0.00 W/m2
01:54 10.3 °C 9.9 °C 1018.8 hPa SSE 11.3 km/h 20.9 km/h 97% 2.54 mm 0.00 W/m2
01:59 10.3 °C 9.9 °C 1018.5 hPa South 9.7 km/h 20.9 km/h 97% 5.08 mm 0.00 W/m2
02:04 10.3 °C 9.8 °C 1018.5 hPa SE 22.5 km/h 29 km/h 97% 7.11 mm 0.00 W/m2
02:09 10.3 °C 9.8 °C 1018.5 hPa SSE 14.5 km/h 27.4 km/h 97% 7.62 mm 0.00 W/m2
02:14 10.3 °C 9.8 °C 1018.2 hPa SSE 9.7 km/h 30.6 km/h 97% 4.57 mm 0.00 W/m2
02:19 10.3 °C 9.8 °C 1017.8 hPa SE 16.1 km/h 20.9 km/h 97% 4.83 mm 0.00 W/m2
02:24 10.3 °C 9.8 °C 1017.8 hPa SSE 9.7 km/h 29 km/h 97% 2.54 mm 0.00 W/m2
02:29 10.2 °C 9.8 °C 1017.8 hPa SE 17.7 km/h 29 km/h 97% 6.35 mm 0.00 W/m2
02:34 10.2 °C 9.8 °C 1017.8 hPa South 3.2 km/h 19.3 km/h 97% 6.86 mm 0.00 W/m2
02:39 10.2 °C 9.7 °C 1017.8 hPa SSE 12.9 km/h 27.4 km/h 97% 8.64 mm 0.00 W/m2
02:44 10.2 °C 9.7 °C 1017.5 hPa SE 24.1 km/h 35.4 km/h 97% 4.83 mm 0.00 W/m2
02:49 10.1 °C 9.7 °C 1017.5 hPa SE 24.1 km/h 35.4 km/h 97% 3.56 mm 0.00 W/m2
02:54 10.1 °C 9.6 °C 1017.2 hPa SSE 17.7 km/h 32.2 km/h 97% 5.08 mm 0.00 W/m2
02:59 10 °C 9.6 °C 1017.2 hPa SSE 8 km/h 29 km/h 97% 3.56 mm 0.00 W/m2
03:04 10 °C 9.4 °C 1016.8 hPa SE 22.5 km/h 33.8 km/h 96% 3.81 mm 0.00 W/m2
03:09 9.9 °C 9.3 °C 1016.8 hPa SE 33.8 km/h 41.8 km/h 96% 4.06 mm 0.00 W/m2
03:14 9.9 °C 9.3 °C 1016.8 hPa SSE 19.3 km/h 32.2 km/h 96% 4.57 mm 0.00 W/m2
03:19 9.9 °C 9.3 °C 1016.5 hPa SE 12.9 km/h 37 km/h 96% 3.81 mm 0.00 W/m2
03:24 9.9 °C 9.3 °C 1016.5 hPa SE 6.4 km/h 32.2 km/h 96% 3.3 mm 0.00 W/m2
03:29 9.9 °C 9.3 °C 1016.5 hPa SE 12.9 km/h 35.4 km/h 96% 3.3 mm 0.00 W/m2
03:34 9.9 °C 9.5 °C 1016.5 hPa SSE 12.9 km/h 37 km/h 97% 1.78 mm 0.00 W/m2
03:39 10 °C 9.6 °C 1016.5 hPa SSE 35.4 km/h 37 km/h 97% 1.78 mm 0.00 W/m2
03:44 10.1 °C 9.6 °C 1016.1 hPa SSE 11.3 km/h 35.4 km/h 97% 2.29 mm 0.00 W/m2
03:49 10.1 °C 9.7 °C 1015.8 hPa ESE 20.9 km/h 30.6 km/h 97% 4.57 mm 0.00 W/m2
03:54 10.2 °C 9.7 °C 1015.8 hPa SSE 27.4 km/h 32.2 km/h 97% 3.05 mm 0.00 W/m2
03:59 10.2 °C 9.7 °C 1015.8 hPa SSE 12.9 km/h 30.6 km/h 97% 2.29 mm 0.00 W/m2
04:05 10.2 °C 9.8 °C 1015.1 hPa SE 24.1 km/h 40.2 km/h 97% 3.81 mm 0.00 W/m2
04:10 10.2 °C 9.8 °C 1015.1 hPa SE 32.2 km/h 54.7 km/h 97% 2.03 mm 0.00 W/m2
04:15 10.3 °C 9.8 °C 1015.5 hPa SSE 24.1 km/h 30.6 km/h 97% 2.03 mm 0.00 W/m2
04:20 10.3 °C 9.8 °C 1015.5 hPa SSE 12.9 km/h 32.2 km/h 97% 2.03 mm 0.00 W/m2
04:25 10.3 °C 9.9 °C 1015.5 hPa SSE 22.5 km/h 32.2 km/h 97% 1.52 mm 0.00 W/m2
04:30 10.3 °C 9.9 °C 1015.1 hPa South 22.5 km/h 38.6 km/h 97% 1.27 mm 0.00 W/m2
04:35 10.4 °C 9.9 °C 1015.1 hPa South 19.3 km/h 43.5 km/h 97% 2.29 mm 0.00 W/m2
04:40 10.4 °C 10 °C 1015.1 hPa SE 14.5 km/h 35.4 km/h 97% 2.29 mm 0.00 W/m2
04:45 10.5 °C 10.1 °C 1014.8 hPa South 6.4 km/h 30.6 km/h 97% 1.78 mm 0.00 W/m2
04:50 10.5 °C 10.1 °C 1015.1 hPa SSE 14.5 km/h 32.2 km/h 97% 6.1 mm 0.00 W/m2
04:55 10.6 °C 10.1 °C 1014.8 hPa South 25.7 km/h 35.4 km/h 97% 9.65 mm 0.00 W/m2
05:00 10.6 °C 10.1 °C 1014.4 hPa SE 22.5 km/h 27.4 km/h 97% 8.38 mm 0.00 W/m2
05:05 10.6 °C 10.1 °C 1014.1 hPa SSE 16.1 km/h 37 km/h 97% 14.73 mm 0.00 W/m2
05:10 10.6 °C 10.2 °C 1013.4 hPa SE 12.9 km/h 33.8 km/h 97% 14.73 mm 0.00 W/m2
05:19 10.6 °C 10.2 °C 1013.8 hPa South 30.6 km/h 38.6 km/h 97% 13.21 mm 0.00 W/m2
05:26 10.7 °C 10.2 °C 1013.4 hPa South 11.3 km/h 16.1 km/h 97% 4.06 mm 0.00 W/m2
05:35 10.7 °C 10.2 °C 1013.4 hPa SSE 14.5 km/h 43.5 km/h 97% 3.3 mm 0.00 W/m2
05:42 10.7 °C 10.3 °C 1013.4 hPa SSW 16.1 km/h 35.4 km/h 97% 1.27 mm 0.00 W/m2
06:29 11.2 °C 10.9 °C 1013.4 hPa South 45.1 km/h 49.9 km/h 98% 0 mm 0.00 W/m2
06:34 11.3 °C 11 °C 1013.4 hPa SSW 19.3 km/h 53.1 km/h 98% 0 mm 0.00 W/m2
06:39 11.3 °C 11 °C 1013.1 hPa SSE 19.3 km/h 41.8 km/h 98% 0 mm 0.00 W/m2
06:44 11.3 °C 11 °C 1013.1 hPa South 29 km/h 53.1 km/h 98% 0 mm 0.00 W/m2
06:50 11.3 °C 11.2 °C 1013.1 hPa SE 32.2 km/h 48.3 km/h 99% 0 mm 0.00 W/m2
06:55 11.3 °C 11 °C 1013.1 hPa SE 19.3 km/h 41.8 km/h 98% 0 mm 0.00 W/m2
07:00 11.3 °C 11 °C 1012.8 hPa SSE 33.8 km/h 49.9 km/h 98% 0 mm 0.00 W/m2
07:05 11.3 °C 11 °C 1012.8 hPa SE 11.3 km/h 43.5 km/h 98% 0 mm 0.00 W/m2
07:10 11.3 °C 11 °C 1012.8 hPa SSE 12.9 km/h 49.9 km/h 98% 0 mm 0.00 W/m2
07:15 11.3 °C 11 °C 1012.8 hPa SSE 27.4 km/h 41.8 km/h 98% 0 mm 0.00 W/m2
07:20 11.3 °C 11 °C 1013.1 hPa SE 9.7 km/h 53.1 km/h 98% 0 mm 0.00 W/m2
07:25 11.3 °C 11 °C 1013.4 hPa SSW 24.1 km/h 51.5 km/h 98% 0 mm 0.00 W/m2
07:30 11.3 °C 11 °C 1013.1 hPa South 29 km/h 46.7 km/h 98% 0 mm 0.00 W/m2
07:35 11.3 °C 11 °C 1013.1 hPa SE 22.5 km/h 51.5 km/h 98% 0 mm 0.00 W/m2
07:40 11.4 °C 11.2 °C 1013.4 hPa South 17.7 km/h 45.1 km/h 99% 0 mm 0.00 W/m2
07:45 11.4 °C 11.3 °C 1013.4 hPa SSE 49.9 km/h 49.9 km/h 99% 0 mm 0.00 W/m2
07:50 11.4 °C 11.3 °C 1013.4 hPa SSE 16.1 km/h 57.9 km/h 99% 2.54 mm 0.00 W/m2
07:55 11.5 °C 11.2 °C 1013.4 hPa South 48.3 km/h 48.3 km/h 98% 4.06 mm 0.00 W/m2
08:00 11.5 °C 11.2 °C 1014.1 hPa South 33.8 km/h 45.1 km/h 98% 3.3 mm 0.00 W/m2
08:05 11.5 °C 11.2 °C 1013.8 hPa South 16.1 km/h 40.2 km/h 98% 16.76 mm 0.00 W/m2
08:10 11.5 °C 11.2 °C 1013.8 hPa South 17.7 km/h 46.7 km/h 98% 5.08 mm 0.00 W/m2
08:15 11.5 °C 11.2 °C 1013.8 hPa SSE 29 km/h 41.8 km/h 98% 6.86 mm 0.00 W/m2
08:20 11.6 °C 11.2 °C 1014.1 hPa SSE 17.7 km/h 35.4 km/h 98% 2.54 mm 0.00 W/m2
08:25 11.6 °C 11.2 °C 1014.1 hPa SSE 40.2 km/h 40.2 km/h 98% 2.54 mm 5.00 W/m2
08:30 11.6 °C 11.3 °C 1014.1 hPa South 29 km/h 46.7 km/h 98% 1.78 mm 7.00 W/m2
08:35 11.7 °C 11.4 °C 1014.1 hPa South 14.5 km/h 49.9 km/h 98% 1.78 mm 7.00 W/m2
08:40 11.7 °C 11.4 °C 1014.1 hPa SSE 6.4 km/h 43.5 km/h 98% 1.52 mm 5.00 W/m2
08:45 11.7 °C 11.4 °C 1014.4 hPa SSW 29 km/h 35.4 km/h 98% 1.02 mm 5.00 W/m2
08:50 11.8 °C 11.5 °C 1014.1 hPa South 24.1 km/h 46.7 km/h 98% 1.02 mm 5.00 W/m2
08:55 11.8 °C 11.5 °C 1014.4 hPa SSW 27.4 km/h 43.5 km/h 98% 1.02 mm 7.00 W/m2
09:00 11.8 °C 11.6 °C 1014.1 hPa South 45.1 km/h 49.9 km/h 98% 1.02 mm 5.00 W/m2
09:05 11.8 °C 11.6 °C 1013.8 hPa SSE 25.7 km/h 43.5 km/h 98% 0 mm 11.00 W/m2
09:10 11.9 °C 11.6 °C 1013.8 hPa SSE 25.7 km/h 43.5 km/h 98% 0 mm 9.00 W/m2
09:15 11.9 °C 11.7 °C 1013.8 hPa SSE 33.8 km/h 43.5 km/h 98% 0 mm 11.00 W/m2
09:20 11.9 °C 11.7 °C 1013.8 hPa ESE 24.1 km/h 45.1 km/h 98% 0 mm 14.00 W/m2
09:25 11.9 °C 11.7 °C 1013.4 hPa South 29 km/h 54.7 km/h 98% 0 mm 14.00 W/m2
09:30 11.9 °C 11.7 °C 1013.4 hPa South 14.5 km/h 38.6 km/h 98% 0 mm 9.00 W/m2
09:35 11.9 °C 11.7 °C 1013.4 hPa SSE 24.1 km/h 49.9 km/h 98% 0 mm 12.00 W/m2
09:40 11.9 °C 11.7 °C 1013.4 hPa SSE 14.5 km/h 45.1 km/h 98% 0 mm 12.00 W/m2
09:45 11.9 °C 11.7 °C 1013.1 hPa South 35.4 km/h 49.9 km/h 98% 0 mm 16.00 W/m2
09:50 11.9 °C 11.7 °C 1013.1 hPa South 30.6 km/h 41.8 km/h 98% 0 mm 12.00 W/m2
09:55 11.9 °C 11.7 °C 1013.4 hPa SSE 17.7 km/h 41.8 km/h 98% 0 mm 9.00 W/m2
10:00 11.9 °C 11.7 °C 1013.8 hPa South 51.5 km/h 51.5 km/h 98% 3.05 mm 7.00 W/m2
10:05 11.9 °C 11.7 °C 1013.4 hPa ESE 25.7 km/h 70.8 km/h 98% 4.57 mm 14.00 W/m2
10:10 11.9 °C 11.7 °C 1013.4 hPa SSE 37 km/h 51.5 km/h 98% 1.78 mm 14.00 W/m2
10:15 11.9 °C 11.4 °C 1013.4 hPa SSE 24.1 km/h 53.1 km/h 97% 1.27 mm 16.00 W/m2
10:20 11.9 °C 11.4 °C 1013.4 hPa SSE 33.8 km/h 49.9 km/h 97% 1.02 mm 14.00 W/m2
10:25 11.8 °C 11.4 °C 1013.8 hPa South 27.4 km/h 46.7 km/h 97% 1.02 mm 12.00 W/m2
10:30 11.8 °C 11.4 °C 1013.4 hPa South 33.8 km/h 49.9 km/h 97% 1.78 mm 11.00 W/m2
10:35 11.8 °C 11.3 °C 1013.4 hPa SW 17.7 km/h 53.1 km/h 97% 15.24 mm 16.00 W/m2
10:40 11.8 °C 11.3 °C 1013.4 hPa South 12.9 km/h 57.9 km/h 97% 6.6 mm 7.00 W/m2
10:45 11.8 °C 11.3 °C 1013.1 hPa SE 33.8 km/h 43.5 km/h 97% 3.3 mm 12.00 W/m2
10:50 11.8 °C 11.3 °C 1013.1 hPa South 29 km/h 64.4 km/h 97% 2.29 mm 14.00 W/m2
10:55 11.8 °C 11.3 °C 1013.1 hPa South 48.3 km/h 62.8 km/h 97% 6.35 mm 12.00 W/m2
11:00 11.8 °C 11.3 °C 1013.1 hPa South 14.5 km/h 62.8 km/h 97% 3.56 mm 12.00 W/m2
11:05 11.8 °C 11.4 °C 1013.1 hPa SW 19.3 km/h 54.7 km/h 97% 3.3 mm 18.00 W/m2
11:10 11.8 °C 11.4 °C 1013.1 hPa SSE 46.7 km/h 51.5 km/h 97% 1.52 mm 16.00 W/m2
11:16 11.8 °C 11.4 °C 1013.1 hPa SSE 33.8 km/h 51.5 km/h 97% 5.33 mm 19.00 W/m2
11:20 11.8 °C 11.4 °C 1013.1 hPa WSW 12.9 km/h 57.9 km/h 97% 5.33 mm 11.00 W/m2
11:26 11.8 °C 11.4 °C 1013.1 hPa SSW 12.9 km/h 37 km/h 97% 2.54 mm 7.00 W/m2
11:31 11.8 °C 11.4 °C 1013.1 hPa South 14.5 km/h 37 km/h 97% 11.68 mm 9.00 W/m2
11:36 11.8 °C 11.4 °C 1013.1 hPa SSW 33.8 km/h 35.4 km/h 97% 16 mm 11.00 W/m2
11:41 11.8 °C 11.3 °C 1013.1 hPa South 19.3 km/h 43.5 km/h 97% 3.05 mm 14.00 W/m2
11:46 11.8 °C 11.3 °C 1013.1 hPa South 30.6 km/h 49.9 km/h 97% 10.16 mm 12.00 W/m2
11:51 11.8 °C 11.3 °C 1013.4 hPa SW 12.9 km/h 46.7 km/h 97% 6.35 mm 14.00 W/m2
11:56 11.8 °C 11.3 °C 1013.4 hPa South 43.5 km/h 56.3 km/h 97% 5.59 mm 14.00 W/m2
12:01 11.8 °C 11.3 °C 1013.4 hPa SSW 27.4 km/h 53.1 km/h 97% 12.19 mm 9.00 W/m2
12:06 11.7 °C 11.3 °C 1013.4 hPa WSW 35.4 km/h 48.3 km/h 97% 17.78 mm 14.00 W/m2
12:11 11.7 °C 11.3 °C 1013.4 hPa SSW 38.6 km/h 53.1 km/h 97% 7.62 mm 19.00 W/m2
12:16 11.7 °C 11.2 °C 1013.1 hPa South 49.9 km/h 56.3 km/h 97% 3.81 mm 12.00 W/m2
12:21 11.7 °C 11.2 °C 1013.1 hPa South 53.1 km/h 59.5 km/h 97% 3.56 mm 16.00 W/m2
12:26 11.6 °C 11.2 °C 1013.1 hPa South 53.1 km/h 67.6 km/h 97% 4.57 mm 11.00 W/m2
12:31 11.6 °C 11.2 °C 1013.1 hPa SSW 33.8 km/h 54.7 km/h 97% 3.05 mm 9.00 W/m2
12:36 11.6 °C 11.1 °C 1012.8 hPa South 32.2 km/h 59.5 km/h 97% 4.83 mm 11.00 W/m2
12:41 11.5 °C 11.1 °C 1012.4 hPa SE 27.4 km/h 62.8 km/h 97% 6.1 mm 11.00 W/m2
12:46 11.4 °C 11 °C 1011.7 hPa SSE 30.6 km/h 66 km/h 97% 4.06 mm 16.00 W/m2
12:51 11.4 °C 11 °C 1011.7 hPa South 29 km/h 57.9 km/h 97% 3.3 mm 11.00 W/m2
12:56 11.4 °C 10.9 °C 1011.7 hPa SSE 19.3 km/h 56.3 km/h 97% 3.81 mm 9.00 W/m2
13:01 11.3 °C 10.7 °C 1011.7 hPa SSW 38.6 km/h 61.2 km/h 96% 3.3 mm 11.00 W/m2
13:06 11.3 °C 10.7 °C 1011.7 hPa SSW 32.2 km/h 62.8 km/h 96% 3.3 mm 9.00 W/m2
13:11 11.3 °C 10.7 °C 1011.7 hPa South 19.3 km/h 53.1 km/h 96% 2.03 mm 9.00 W/m2
13:16 11.3 °C 10.7 °C 1011.4 hPa SW 24.1 km/h 61.2 km/h 96% 2.29 mm 12.00 W/m2
13:21 11.3 °C 10.7 °C 1011.4 hPa South 41.8 km/h 53.1 km/h 96% 2.29 mm 9.00 W/m2
13:26 11.3 °C 10.7 °C 1011.4 hPa SSE 38.6 km/h 51.5 km/h 96% 1.27 mm 12.00 W/m2
13:31 11.3 °C 10.7 °C 1011.4 hPa SSE 14.5 km/h 61.2 km/h 96% 1.02 mm 14.00 W/m2
13:36 11.3 °C 10.8 °C 1011.4 hPa SSW 33.8 km/h 53.1 km/h 97% 0 mm 12.00 W/m2
13:41 11.2 °C 10.8 °C 1011.1 hPa SSE 35.4 km/h 51.5 km/h 97% 0 mm 14.00 W/m2
13:46 11.2 °C 10.8 °C 1011.4 hPa SSE 24.1 km/h 61.2 km/h 97% 0 mm 11.00 W/m2
13:51 11.2 °C 10.7 °C 1010.7 hPa SSE 46.7 km/h 48.3 km/h 97% 1.27 mm 23.00 W/m2
13:56 11.1 °C 10.7 °C 1011.1 hPa South 33.8 km/h 62.8 km/h 97% 2.03 mm 21.00 W/m2
14:01 11.1 °C 10.7 °C 1010.7 hPa South 20.9 km/h 53.1 km/h 97% 2.03 mm 12.00 W/m2
14:06 11.1 °C 10.6 °C 1010.7 hPa SSW 29 km/h 51.5 km/h 97% 1.52 mm 12.00 W/m2
14:11 11.1 °C 10.6 °C 1010.7 hPa SE 24.1 km/h 59.5 km/h 97% 5.08 mm 12.00 W/m2
14:16 11.1 °C 10.6 °C 1010.7 hPa South 45.1 km/h 49.9 km/h 97% 4.32 mm 16.00 W/m2
14:21 11 °C 10.6 °C 1010.7 hPa South 24.1 km/h 54.7 km/h 97% 6.86 mm 11.00 W/m2
14:26 10.9 °C 10.3 °C 1010.7 hPa SSE 40.2 km/h 49.9 km/h 96% 3.56 mm 14.00 W/m2
14:31 10.9 °C 10.3 °C 1010.7 hPa South 35.4 km/h 43.5 km/h 96% 3.56 mm 12.00 W/m2
14:36 10.9 °C 10.3 °C 1010.7 hPa South 33.8 km/h 61.2 km/h 96% 4.83 mm 12.00 W/m2
14:41 10.8 °C 10.2 °C 1010.7 hPa SSE 19.3 km/h 24.1 km/h 96% 4.32 mm 9.00 W/m2
14:46 10.8 °C 10.2 °C 1010.7 hPa SSE 27.4 km/h 43.5 km/h 96% 5.59 mm 11.00 W/m2
14:51 10.8 °C 10.2 °C 1010.7 hPa SSE 49.9 km/h 54.7 km/h 96% 3.81 mm 12.00 W/m2
14:56 10.8 °C 10.2 °C 1011.1 hPa SW 30.6 km/h 67.6 km/h 96% 3.3 mm 18.00 W/m2
15:01 10.8 °C 10.2 °C 1011.1 hPa SSW 16.1 km/h 16.1 km/h 96% 3.56 mm 11.00 W/m2
15:06 10.8 °C 10.2 °C 1010.7 hPa South 30.6 km/h 54.7 km/h 96% 3.56 mm 19.00 W/m2
15:11 10.8 °C 10.2 °C 1010.7 hPa South 49.9 km/h 49.9 km/h 96% 1.78 mm 14.00 W/m2
15:16 10.8 °C 10.2 °C 1010.7 hPa SSE 41.8 km/h 49.9 km/h 96% 1.78 mm 12.00 W/m2
15:21 10.8 °C 10.4 °C 1010.7 hPa South 38.6 km/h 51.5 km/h 97% 4.06 mm 14.00 W/m2
15:26 10.8 °C 10.2 °C 1010.7 hPa SSE 11.3 km/h 46.7 km/h 96% 3.3 mm 9.00 W/m2
15:31 10.8 °C 10.2 °C 1011.1 hPa South 35.4 km/h 40.2 km/h 96% 3.3 mm 7.00 W/m2
15:36 10.9 °C 10.3 °C 1010.7 hPa South 29 km/h 54.7 km/h 96% 1.78 mm 9.00 W/m2
15:41 10.9 °C 10.3 °C 1011.1 hPa SSE 14.5 km/h 38.6 km/h 96% 6.35 mm 7.00 W/m2
15:46 10.9 °C 10.3 °C 1011.1 hPa SSE 30.6 km/h 54.7 km/h 96% 5.33 mm 5.00 W/m2
15:51 10.9 °C 10.3 °C 1010.7 hPa SSW 16.1 km/h 48.3 km/h 96% 4.32 mm 9.00 W/m2
15:56 10.9 °C 10.3 °C 1011.1 hPa SSW 19.3 km/h 38.6 km/h 96% 4.32 mm 5.00 W/m2
16:01 10.9 °C 10.5 °C 1011.1 hPa SW 25.7 km/h 53.1 km/h 97% 2.54 mm 5.00 W/m2
16:06 10.9 °C 10.5 °C 1011.1 hPa SSW 24.1 km/h 57.9 km/h 97% 3.3 mm 0.00 W/m2
16:11 10.9 °C 10.3 °C 1011.1 hPa South 25.7 km/h 43.5 km/h 96% 9.91 mm 0.00 W/m2
16:16 11 °C 10.4 °C 1011.1 hPa South 9.7 km/h 40.2 km/h 96% 11.43 mm 0.00 W/m2
16:21 10.9 °C 10.3 °C 1011.1 hPa SSE 14.5 km/h 41.8 km/h 96% 11.18 mm 0.00 W/m2
16:26 10.9 °C 10.3 °C 1010.7 hPa SW 4.8 km/h 46.7 km/h 96% 7.37 mm 0.00 W/m2
16:31 10.9 °C 10.3 °C 1010.7 hPa SW 27.4 km/h 29 km/h 96% 10.92 mm 0.00 W/m2
16:36 10.9 °C 10.3 °C 1010.7 hPa SSE 20.9 km/h 40.2 km/h 96% 10.67 mm 0.00 W/m2
16:41 10.9 °C 10.3 °C 1011.1 hPa South 19.3 km/h 38.6 km/h 96% 9.65 mm 0.00 W/m2
16:46 10.9 °C 10.3 °C 1010.4 hPa SSW 12.9 km/h 46.7 km/h 96% 9.65 mm 0.00 W/m2
16:51 10.9 °C 10.3 °C 1010.4 hPa SSW 3.2 km/h 40.2 km/h 96% 5.84 mm 0.00 W/m2
16:56 10.9 °C 10.3 °C 1010.4 hPa SW 16.1 km/h 38.6 km/h 96% 12.19 mm 0.00 W/m2
17:01 10.9 °C 10.3 °C 1010.7 hPa South 20.9 km/h 38.6 km/h 96% 8.64 mm 0.00 W/m2
17:06 10.9 °C 10.3 °C 1010.7 hPa South 53.1 km/h 53.1 km/h 96% 7.11 mm 0.00 W/m2
17:11 10.9 °C 10.3 °C 1011.1 hPa WSW 12.9 km/h 12.9 km/h 96% 4.83 mm 0.00 W/m2
17:16 10.9 °C 10.3 °C 1011.1 hPa SSW 16.1 km/h 45.1 km/h 96% 16.51 mm 0.00 W/m2
17:21 10.9 °C 10.4 °C 1010.7 hPa South 22.5 km/h 38.6 km/h 97% 7.11 mm 0.00 W/m2
17:26 10.9 °C 10.4 °C 1011.1 hPa SW 11.3 km/h 45.1 km/h 97% 4.06 mm 0.00 W/m2
17:31 10.9 °C 10.4 °C 1011.1 hPa South 35.4 km/h 43.5 km/h 97% 3.81 mm 0.00 W/m2
17:36 10.9 °C 10.4 °C 1011.4 hPa SW 19.3 km/h 51.5 km/h 97% 5.33 mm 0.00 W/m2
17:41 10.9 °C 10.3 °C 1011.1 hPa SSE 33.8 km/h 45.1 km/h 96% 3.56 mm 0.00 W/m2
17:46 10.8 °C 10.4 °C 1011.1 hPa South 35.4 km/h 51.5 km/h 97% 3.3 mm 0.00 W/m2
17:51 10.9 °C 10.4 °C 1011.7 hPa South 22.5 km/h 22.5 km/h 97% 4.83 mm 0.00 W/m2
17:56 10.9 °C 10.4 °C 1011.1 hPa SSW 16.1 km/h 46.7 km/h 97% 4.57 mm 0.00 W/m2
18:01 10.9 °C 10.4 °C 1011.4 hPa SW 38.6 km/h 51.5 km/h 97% 3.3 mm 0.00 W/m2
18:06 10.9 °C 10.5 °C 1011.4 hPa SSE 33.8 km/h 49.9 km/h 97% 3.56 mm 0.00 W/m2
18:11 10.9 °C 10.5 °C 1011.1 hPa SSE 22.5 km/h 32.2 km/h 97% 1.78 mm 0.00 W/m2
18:16 10.9 °C 10.5 °C 1011.4 hPa SSE 12.9 km/h 51.5 km/h 97% 1.78 mm 0.00 W/m2
18:21 10.9 °C 10.5 °C 1011.4 hPa South 38.6 km/h 59.5 km/h 97% 1.78 mm 0.00 W/m2
18:26 11 °C 10.6 °C 1011.4 hPa SSW 38.6 km/h 51.5 km/h 97% 1.02 mm 0.00 W/m2
18:31 11 °C 10.6 °C 1011.4 hPa SSW 30.6 km/h 43.5 km/h 97% 0 mm 0.00 W/m2
18:36 11.1 °C 10.6 °C 1011.1 hPa South 16.1 km/h 35.4 km/h 97% 0 mm 0.00 W/m2
18:41 11.1 °C 10.6 °C 1011.4 hPa SW 30.6 km/h 46.7 km/h 97% 0 mm 0.00 W/m2
18:46 11.1 °C 10.7 °C 1011.1 hPa South 27.4 km/h 48.3 km/h 97% 0 mm 0.00 W/m2
18:51 11.1 °C 10.7 °C 1011.1 hPa SSW 9.7 km/h 51.5 km/h 97% 1.02 mm 0.00 W/m2
18:56 11.2 °C 10.7 °C 1011.4 hPa SSW 17.7 km/h 61.2 km/h 97% 1.02 mm 0.00 W/m2
19:01 11.2 °C 10.7 °C 1011.4 hPa SSW 37 km/h 41.8 km/h 97% 1.02 mm 0.00 W/m2
19:06 11.2 °C 10.7 °C 1011.1 hPa SSE 24.1 km/h 41.8 km/h 97% 0 mm 0.00 W/m2
19:11 11.2 °C 10.7 °C 1011.4 hPa South 14.5 km/h 53.1 km/h 97% 0 mm 0.00 W/m2
19:16 11.2 °C 10.8 °C 1011.4 hPa SW 9.7 km/h 41.8 km/h 97% 0 mm 0.00 W/m2
19:21 11.2 °C 10.8 °C 1011.4 hPa SW 16.1 km/h 57.9 km/h 97% 0 mm 0.00 W/m2
19:26 11.2 °C 10.8 °C 1011.4 hPa SW 25.7 km/h 46.7 km/h 97% 0 mm 0.00 W/m2
19:31 11.2 °C 10.8 °C 1011.4 hPa SSW 33.8 km/h 41.8 km/h 97% 6.6 mm 0.00 W/m2
19:36 11.2 °C 10.8 °C 1011.4 hPa South 16.1 km/h 40.2 km/h 97% 2.03 mm 0.00 W/m2
19:41 11.2 °C 10.8 °C 1011.4 hPa South 16.1 km/h 38.6 km/h 97% 6.86 mm 0.00 W/m2
19:46 11.2 °C 10.8 °C 1011.1 hPa South 20.9 km/h 41.8 km/h 97% 3.81 mm 0.00 W/m2
19:51 11.2 °C 10.8 °C 1011.4 hPa SW 16.1 km/h 35.4 km/h 97% 4.83 mm 0.00 W/m2
19:56 11.2 °C 10.8 °C 1011.4 hPa Calm   27.4 km/h 97% 11.94 mm 0.00 W/m2
20:01 11.2 °C 10.8 °C 1011.4 hPa Calm   32.2 km/h 97% 20.83 mm 0.00 W/m2
20:06 11.2 °C 10.8 °C 1011.4 hPa South 16.1 km/h 40.2 km/h 97% 4.57 mm 0.00 W/m2
20:11 11.1 °C 10.6 °C 1011.1 hPa West 35.4 km/h 43.5 km/h 97% 16 mm 0.00 W/m2
20:16 11 °C 10.6 °C 1011.4 hPa SSW 22.5 km/h 46.7 km/h 97% 4.32 mm 0.00 W/m2
20:21 10.9 °C 10.5 °C 1011.1 hPa WSW 19.3 km/h 40.2 km/h 97% 5.59 mm 0.00 W/m2
20:26 10.9 °C 10.4 °C 1011.4 hPa WSW 25.7 km/h 25.7 km/h 97% 4.32 mm 0.00 W/m2
20:31 10.9 °C 10.5 °C 1011.4 hPa SSW 11.3 km/h 11.3 km/h 97% 3.56 mm 0.00 W/m2
20:36 10.9 °C 10.5 °C 1011.4 hPa SW 37 km/h 37 km/h 97% 1.52 mm 0.00 W/m2
20:41 10.9 °C 10.5 °C 1011.7 hPa South 11.3 km/h 59.5 km/h 97% 1.02 mm 0.00 W/m2
20:46 10.9 °C 10.4 °C 1011.7 hPa SW 29 km/h 51.5 km/h 97% 0 mm 0.00 W/m2
20:51 10.9 °C 10.4 °C 1011.7 hPa SW 11.3 km/h 11.3 km/h 97% 0 mm 0.00 W/m2
20:56 10.8 °C 10.4 °C 1012.1 hPa SW 35.4 km/h 35.4 km/h 97% 0 mm 0.00 W/m2
21:01 10.8 °C 10.3 °C 1012.1 hPa SSW 3.2 km/h 4.8 km/h 97% 0 mm 0.00 W/m2
21:06 10.8 °C 10.3 °C 1012.1 hPa WSW 22.5 km/h 22.5 km/h 97% 0 mm 0.00 W/m2
21:11 10.7 °C 10.3 °C 1012.4 hPa SSW 40.2 km/h 40.2 km/h 97% 0 mm 0.00 W/m2
21:16 10.7 °C 10.2 °C 1012.4 hPa WSW 25.7 km/h 25.7 km/h 97% 0 mm 0.00 W/m2
21:21 10.6 °C 10 °C 1012.4 hPa SSW 29 km/h 32.2 km/h 96% 0 mm 0.00 W/m2
21:26 10.6 °C 10.2 °C 1012.4 hPa SW 25.7 km/h 25.7 km/h 97% 0 mm 0.00 W/m2
21:31 10.6 °C 10.2 °C 1012.4 hPa South 35.4 km/h 38.6 km/h 97% 1.78 mm 0.00 W/m2
21:36 10.6 °C 10.1 °C 1012.4 hPa WSW 9.7 km/h 9.7 km/h 97% 5.08 mm 0.00 W/m2
21:41 10.6 °C 10.1 °C 1012.4 hPa SSW 33.8 km/h 33.8 km/h 97% 3.05 mm 0.00 W/m2
21:46 10.6 °C 10.1 °C 1012.1 hPa WSW 29 km/h 32.2 km/h 97% 3.3 mm 0.00 W/m2
21:51 10.6 °C 10.1 °C 1012.1 hPa SW 16.1 km/h 33.8 km/h 97% 3.05 mm 0.00 W/m2
21:56 10.5 °C 10.1 °C 1012.1 hPa SSW 17.7 km/h 32.2 km/h 97% 10.92 mm 0.00 W/m2
22:01 10.5 °C 10.1 °C 1012.4 hPa WSW 33.8 km/h 33.8 km/h 97% 14.22 mm 0.00 W/m2
22:06 10.5 °C 10.1 °C 1012.8 hPa SW 17.7 km/h 33.8 km/h 97% 5.33 mm 0.00 W/m2
22:11 10.6 °C 10.1 °C 1012.8 hPa SSE 3.2 km/h 6.4 km/h 97% 3.56 mm 0.00 W/m2
22:16 10.6 °C 10.1 °C 1012.8 hPa SSW 17.7 km/h 37 km/h 97% 1.78 mm 0.00 W/m2
22:21 10.6 °C 10.1 °C 1012.8 hPa West 43.5 km/h 69.2 km/h 97% 1.27 mm 0.00 W/m2
22:26 10.4 °C 10 °C 1012.8 hPa SW 25.7 km/h 32.2 km/h 97% 0 mm 0.00 W/m2
22:32 10.3 °C 9.9 °C 1012.8 hPa SSW 38.6 km/h 51.5 km/h 97% 0 mm 0.00 W/m2
22:37 10.3 °C 9.8 °C 1012.8 hPa WSW 14.5 km/h 30.6 km/h 97% 0 mm 0.00 W/m2
22:42 10.2 °C 9.6 °C 1012.8 hPa SW 22.5 km/h 32.2 km/h 96% 0 mm 0.00 W/m2
22:47 10.1 °C 9.7 °C 1012.8 hPa SW 12.9 km/h 27.4 km/h 97% 0 mm 0.00 W/m2
22:52 10.1 °C 9.6 °C 1012.8 hPa West 11.3 km/h 20.9 km/h 97% 0 mm 0.00 W/m2
22:57 10 °C 9.6 °C 1012.8 hPa SW 33.8 km/h 33.8 km/h 97% 0 mm 0.00 W/m2
23:02 9.9 °C 9.3 °C 1012.8 hPa SW 19.3 km/h 22.5 km/h 96% 0 mm 0.00 W/m2
23:07 9.9 °C 9.3 °C 1012.8 hPa NW 27.4 km/h 37 km/h 96% 0 mm 0.00 W/m2
23:12 9.8 °C 9.3 °C 1012.8 hPa WSW 17.7 km/h 17.7 km/h 97% 0 mm 0.00 W/m2
23:17 9.7 °C 9.3 °C 1013.1 hPa SW 29 km/h 45.1 km/h 97% 0 mm 0.00 W/m2
23:22 9.7 °C 9.3 °C 1013.1 hPa SW 4.8 km/h 22.5 km/h 97% 0 mm 0.00 W/m2
23:27 9.7 °C 9.3 °C 1013.1 hPa SSW 24.1 km/h 30.6 km/h 97% 0 mm 0.00 W/m2
23:32 9.7 °C 9.3 °C 1013.1 hPa WSW 9.7 km/h 11.3 km/h 97% 0 mm 0.00 W/m2
23:37 9.7 °C 9.3 °C 1013.1 hPa WSW 9.7 km/h 29 km/h 97% 0 mm 0.00 W/m2
23:42 9.7 °C 9.3 °C 1013.1 hPa South 29 km/h 38.6 km/h 97% 0 mm 0.00 W/m2
23:47 9.7 °C 9.3 °C 1013.1 hPa WSW 14.5 km/h 32.2 km/h 97% 0 mm 0.00 W/m2
23:52 9.7 °C 9.3 °C 1013.1 hPa SW 14.5 km/h 14.5 km/h 97% 0 mm 0.00 W/m2
23:57 9.7 °C 9.2 °C 1013.4 hPa SW 8 km/h 24.1 km/h 97% 0 mm 0.00 W/m2
Foresthill Weather
 WU-history PHP script courtesy of   Juneau County Weather.
powered by Cumulus v1.9.3 (1059)
Ambient Weather VWS v14.00
Top Contact Website Map Copyright © 2007 - 2018 Foresthillweather.com Never base important decisions on this or any weather information obtained from the Internet